Time;durP1;ratioP1;P1;durP2;ratioP2;P2;SDS_P1;SDS_P2;PMS_P1;PMS_P2;Temp;Humidity;BMP_temperature;BMP_pressure;BME280_temperature;BME280_humidity;BME280_pressure;Samples;Min_cycle;Max_cycle;Signal;HPM_P1;HPM_P2
2023/07/08 00:02:12;;;;;;;0.90;0.85;;;24.20;48.90;;;;;;5077867;28;20229;-72
2023/07/08 00:04:39;;;;;;;0.73;0.73;;;24.20;49.00;;;;;;5075179;28;20024;-72
2023/07/08 00:07:10;;;;;;;0.65;0.65;;;24.10;49.10;;;;;;5077720;28;20032;-72
2023/07/08 00:09:35;;;;;;;1.02;0.60;;;24.10;49.70;;;;;;5068969;28;20061;-72
2023/07/08 00:12:03;;;;;;;0.70;0.70;;;24.00;49.20;;;;;;5076087;28;20556;-72
2023/07/08 00:14:29;;;;;;;1.08;0.73;;;24.00;49.30;;;;;;5066081;28;20033;-72
2023/07/08 00:16:55;;;;;;;1.23;0.57;;;24.00;49.40;;;;;;5069251;28;20592;-72
2023/07/08 00:19:23;;;;;;;0.98;0.88;;;23.90;49.40;;;;;;5070505;28;20034;-63
2023/07/08 00:21:51;;;;;;;0.75;0.70;;;23.90;50.10;;;;;;5077668;28;20128;-72
2023/07/08 00:24:17;;;;;;;0.90;0.40;;;23.90;49.60;;;;;;5058884;28;20028;-72
2023/07/08 00:26:42;;;;;;;1.17;0.60;;;23.90;49.70;;;;;;5081419;28;20029;-72
2023/07/08 00:29:12;;;;;;;1.98;0.77;;;23.90;49.70;;;;;;5078253;28;20033;-72
2023/07/08 00:31:38;;;;;;;1.77;1.00;;;23.80;49.70;;;;;;5064824;28;20081;-72
2023/07/08 00:34:04;;;;;;;0.70;0.57;;;23.80;49.80;;;;;;5068317;28;20475;-72
2023/07/08 00:36:30;;;;;;;0.98;0.88;;;23.70;49.80;;;;;;5076207;28;20036;-72
2023/07/08 00:38:57;;;;;;;0.57;0.57;;;23.70;49.90;;;;;;5074121;28;20033;-72
2023/07/08 00:41:33;;;;;;;0.85;0.77;;;23.70;50.00;;;;;;5074312;28;20040;-72
2023/07/08 00:44:00;;;;;;;0.77;0.50;;;23.70;50.70;;;;;;5081512;28;20024;-72
2023/07/08 00:46:31;;;;;;;0.70;0.70;;;23.60;50.10;;;;;;5072331;28;20036;-72
2023/07/08 00:49:09;;;;;;;0.68;0.68;;;23.60;50.10;;;;;;5071727;28;20051;-63
2023/07/08 00:51:39;;;;;;;0.60;0.60;;;23.60;50.30;;;;;;5078029;28;20028;-63
2023/07/08 00:54:17;;;;;;;0.60;0.60;;;23.60;50.30;;;;;;5077550;28;20475;-72
2023/07/08 00:57:02;;;;;;;0.93;0.90;;;23.50;50.30;;;;;;5071272;28;20128;-72
2023/07/08 00:59:33;;;;;;;1.52;1.10;;;23.50;50.50;;;;;;5072848;28;20029;-72
2023/07/08 01:02:01;;;;;;;0.98;0.80;;;23.40;50.50;;;;;;5071172;28;20021;-72
2023/07/08 01:04:42;;;;;;;1.75;0.80;;;23.40;50.60;;;;;;5068770;28;20453;-72
2023/07/08 01:07:09;;;;;;;0.90;0.90;;;23.40;50.60;;;;;;5074449;28;20036;-72
2023/07/08 01:09:41;;;;;;;0.82;0.57;;;23.30;50.70;;;;;;5068418;28;20040;-72
2023/07/08 01:12:12;;;;;;;0.70;0.70;;;23.30;50.80;;;;;;5069760;28;20036;-72
2023/07/08 01:14:42;;;;;;;1.52;1.25;;;23.20;50.90;;;;;;5066629;28;20078;-72
2023/07/08 01:17:13;;;;;;;0.95;0.75;;;23.20;50.90;;;;;;5070580;28;20039;-72
2023/07/08 01:19:40;;;;;;;0.80;0.80;;;23.20;51.00;;;;;;5070243;28;20028;-72
2023/07/08 01:22:07;;;;;;;1.10;0.93;;;23.20;51.20;;;;;;5075783;28;20028;-72
2023/07/08 01:24:42;;;;;;;2.60;0.88;;;23.10;51.30;;;;;;5088036;28;20428;-63
2023/07/08 01:27:13;;;;;;;1.20;0.80;;;23.10;51.40;;;;;;5077374;28;20464;-63
2023/07/08 01:29:39;;;;;;;1.50;0.93;;;23.00;51.50;;;;;;5076102;28;20078;-63
2023/07/08 01:32:05;;;;;;;0.80;0.70;;;22.90;51.50;;;;;;5078817;28;20031;-63
2023/07/08 01:34:35;;;;;;;1.08;0.80;;;22.90;51.60;;;;;;5080527;28;20036;-64
2023/07/08 01:37:03;;;;;;;0.82;0.63;;;22.90;51.70;;;;;;5077244;28;20528;-63
2023/07/08 01:39:30;;;;;;;1.98;0.90;;;22.90;51.80;;;;;;5079557;28;20062;-63
2023/07/08 01:41:57;;;;;;;1.08;0.98;;;22.90;52.10;;;;;;5075135;28;20403;-63
2023/07/08 01:44:36;;;;;;;0.77;0.75;;;22.80;52.10;;;;;;5077035;28;20025;-62
2023/07/08 01:47:14;;;;;;;1.10;0.70;;;22.80;52.30;;;;;;5070399;28;20021;-63
2023/07/08 01:49:41;;;;;;;0.88;0.70;;;22.80;52.40;;;;;;5079103;28;20017;-64
2023/07/08 01:52:08;;;;;;;0.73;0.50;;;22.70;52.60;;;;;;5074723;28;20040;-64
2023/07/08 01:54:34;;;;;;;0.50;0.50;;;22.70;52.60;;;;;;5079779;28;20069;-64
2023/07/08 01:57:01;;;;;;;1.55;0.80;;;22.70;52.60;;;;;;5074530;28;20076;-64
2023/07/08 01:59:27;;;;;;;0.80;0.80;;;22.60;52.60;;;;;;5082211;28;20028;-64
2023/07/08 02:01:56;;;;;;;0.80;0.70;;;22.60;52.70;;;;;;5074579;28;20032;-65
2023/07/08 02:04:23;;;;;;;1.13;0.80;;;22.60;52.80;;;;;;5076000;28;20063;-64
2023/07/08 02:06:59;;;;;;;1.20;0.70;;;22.60;52.80;;;;;;5074352;28;20393;-63
2023/07/08 02:09:26;;;;;;;0.77;0.77;;;22.60;53.00;;;;;;5072922;28;20087;-63
2023/07/08 02:11:55;;;;;;;0.98;0.82;;;22.50;52.90;;;;;;5073582;28;20495;-63
2023/07/08 02:14:22;;;;;;;2.70;0.70;;;22.60;53.10;;;;;;5068817;28;20062;-63
2023/07/08 02:16:47;;;;;;;0.50;0.50;;;22.50;53.00;;;;;;5072420;28;20033;-72
2023/07/08 02:19:13;;;;;;;1.35;0.80;;;22.50;53.10;;;;;;5079047;28;20364;-72
2023/07/08 02:21:39;;;;;;;1.38;0.98;;;22.50;53.20;;;;;;5079662;28;20024;-72
2023/07/08 02:24:05;;;;;;;0.80;0.80;;;22.50;53.30;;;;;;5080795;28;20106;-72
2023/07/08 02:26:32;;;;;;;1.35;0.90;;;22.50;53.40;;;;;;5071638;28;20119;-72
2023/07/08 02:28:58;;;;;;;0.63;0.63;;;22.40;53.50;;;;;;5083425;28;20099;-72
2023/07/08 02:31:24;;;;;;;0.75;0.60;;;22.40;53.40;;;;;;5069571;28;20116;-72
2023/07/08 02:33:51;;;;;;;1.20;0.90;;;22.40;53.50;;;;;;5077798;28;20171;-72
2023/07/08 02:36:16;;;;;;;1.27;0.75;;;22.30;53.50;;;;;;5073973;28;20039;-72
2023/07/08 02:38:42;;;;;;;0.88;0.80;;;22.30;53.70;;;;;;5072821;28;20486;-72
2023/07/08 02:41:08;;;;;;;0.95;0.60;;;22.30;53.90;;;;;;5074607;28;20692;-72
2023/07/08 02:43:33;;;;;;;13.57;0.90;;;22.30;53.90;;;;;;5073487;28;20055;-72
2023/07/08 02:45:59;;;;;;;0.88;0.73;;;22.30;53.90;;;;;;5072255;28;20111;-72
2023/07/08 02:48:25;;;;;;;0.95;0.80;;;22.30;54.00;;;;;;5073485;28;20086;-72
2023/07/08 02:50:50;;;;;;;1.67;1.15;;;22.30;54.20;;;;;;5070940;28;20036;-72
2023/07/08 02:53:16;;;;;;;1.95;1.00;;;22.20;54.20;;;;;;5072442;28;20056;-73
2023/07/08 02:55:42;;;;;;;0.82;0.82;;;22.20;54.40;;;;;;5073311;28;20036;-71
2023/07/08 02:58:09;;;;;;;1.00;0.70;;;22.20;54.50;;;;;;5082647;28;20444;-72
2023/07/08 03:00:37;;;;;;;1.23;0.82;;;22.20;54.60;;;;;;5073981;28;20524;-64
2023/07/08 03:03:03;;;;;;;0.93;0.70;;;22.10;54.70;;;;;;5070146;28;20534;-63
2023/07/08 03:05:30;;;;;;;0.77;0.77;;;22.10;54.80;;;;;;5071025;28;20368;-63
2023/07/08 03:07:56;;;;;;;6.63;0.85;;;22.10;54.80;;;;;;5073403;28;20395;-63
2023/07/08 03:10:21;;;;;;;4.40;0.70;;;22.00;54.80;;;;;;5071803;28;20033;-63
2023/07/08 03:12:47;;;;;;;1.77;0.90;;;22.00;54.90;;;;;;5071293;28;20077;-63
2023/07/08 03:15:13;;;;;;;1.30;1.05;;;22.00;55.20;;;;;;5077678;28;20071;-63
2023/07/08 03:17:39;;;;;;;0.80;0.70;;;22.00;55.30;;;;;;5072625;28;20389;-63
2023/07/08 03:20:07;;;;;;;0.70;0.70;;;21.90;55.20;;;;;;5070647;28;20028;-63
2023/07/08 03:22:33;;;;;;;1.27;0.90;;;21.90;55.40;;;;;;5066529;28;20029;-63
2023/07/08 03:24:59;;;;;;;0.88;0.63;;;21.90;55.40;;;;;;5065062;28;20032;-63
2023/07/08 03:27:24;;;;;;;0.93;0.80;;;21.90;55.60;;;;;;5073684;28;20028;-64
2023/07/08 03:29:50;;;;;;;1.25;1.05;;;21.80;55.60;;;;;;5075735;28;20114;-64
2023/07/08 03:32:16;;;;;;;0.68;0.68;;;21.80;55.60;;;;;;5072769;28;20087;-65
2023/07/08 03:34:41;;;;;;;0.80;0.80;;;21.80;55.60;;;;;;5080237;28;20039;-64
2023/07/08 03:37:09;;;;;;;1.13;0.82;;;21.80;55.70;;;;;;5076208;28;20036;-64
2023/07/08 03:39:34;;;;;;;0.68;0.60;;;21.80;55.70;;;;;;5068782;28;20025;-64
2023/07/08 03:42:00;;;;;;;0.73;0.70;;;21.80;55.80;;;;;;5079092;28;20551;-64
2023/07/08 03:44:26;;;;;;;1.52;0.60;;;21.70;55.80;;;;;;5075883;28;20032;-64
2023/07/08 03:46:52;;;;;;;1.73;1.13;;;21.70;55.90;;;;;;5067403;28;20040;-64
2023/07/08 03:49:22;;;;;;;4.97;1.25;;;21.70;56.00;;;;;;5072441;28;20037;-64
2023/07/08 03:51:49;;;;;;;1.48;0.80;;;21.70;56.00;;;;;;5073930;28;20103;-73
2023/07/08 03:54:15;;;;;;;1.27;0.75;;;21.70;56.00;;;;;;5071956;28;20040;-73
2023/07/08 03:56:41;;;;;;;1.05;0.88;;;21.70;56.10;;;;;;5069954;28;20094;-74
2023/07/08 03:59:08;;;;;;;1.05;0.85;;;21.70;56.10;;;;;;5068246;28;20048;-73
2023/07/08 04:01:33;;;;;;;2.03;1.00;;;21.70;56.10;;;;;;5074242;28;20027;-73
2023/07/08 04:04:02;;;;;;;1.27;1.00;;;21.70;56.80;;;;;;5068897;28;20060;-72
2023/07/08 04:06:31;;;;;;;1.02;0.88;;;21.70;56.30;;;;;;5068201;28;20035;-72
2023/07/08 04:08:57;;;;;;;0.90;0.90;;;21.70;56.30;;;;;;5073548;28;20496;-72
2023/07/08 04:11:23;;;;;;;0.70;0.70;;;21.70;56.40;;;;;;5067424;28;20116;-72
2023/07/08 04:13:49;;;;;;;3.00;0.88;;;21.70;56.30;;;;;;5071611;28;20039;-73
2023/07/08 04:16:45;;;;;;;1.23;0.82;;;21.70;56.30;;;;;;5075485;28;20071;-72
2023/07/08 04:19:14;;;;;;;0.93;0.60;;;21.80;56.20;;;;;;5057936;28;20164;-72
2023/07/08 04:21:40;;;;;;;2.20;0.80;;;21.70;56.30;;;;;;5052713;28;20119;-72
2023/07/08 04:24:08;;;;;;;0.60;0.60;;;21.80;56.30;;;;;;5073762;28;20031;-72
2023/07/08 04:26:35;;;;;;;1.10;0.60;;;21.80;56.30;;;;;;5070309;28;20036;-72
2023/07/08 04:29:12;;;;;;;0.80;0.73;;;21.80;56.30;;;;;;5073540;28;20398;-72
2023/07/08 04:31:37;;;;;;;1.92;0.80;;;21.80;56.20;;;;;;5072786;28;20025;-64
2023/07/08 04:34:03;;;;;;;1.33;0.80;;;21.80;56.40;;;;;;5065810;28;20037;-64
2023/07/08 04:36:29;;;;;;;1.00;0.90;;;21.90;56.50;;;;;;5067734;28;20032;-64
2023/07/08 04:38:57;;;;;;;3.15;0.80;;;21.90;56.40;;;;;;5073318;28;20032;-64
2023/07/08 04:41:25;;;;;;;1.05;0.50;;;21.80;56.40;;;;;;5074489;28;20032;-64
2023/07/08 04:43:53;;;;;;;1.13;0.73;;;21.90;56.40;;;;;;5069312;28;20498;-64
2023/07/08 04:46:46;;;;;;;1.42;0.90;;;21.90;56.30;;;;;;5069574;28;20021;-64
2023/07/08 04:49:13;;;;;;;0.75;0.68;;;22.00;56.20;;;;;;5065210;28;20486;-64
2023/07/08 04:51:40;;;;;;;0.50;0.50;;;22.00;56.40;;;;;;5069670;28;20556;-72
2023/07/08 04:54:06;;;;;;;1.33;0.77;;;22.00;56.20;;;;;;5072737;28;20021;-72
2023/07/08 04:56:44;;;;;;;0.85;0.70;;;22.00;56.20;;;;;;5073031;28;20060;-72
2023/07/08 04:59:16;;;;;;;1.55;1.00;;;22.00;56.20;;;;;;5064412;28;20115;-73
2023/07/08 05:01:41;;;;;;;0.77;0.77;;;22.10;56.40;;;;;;5072832;28;20379;-72
2023/07/08 05:04:10;;;;;;;1.75;1.02;;;22.10;56.40;;;;;;5068718;28;20020;-72
2023/07/08 05:06:36;;;;;;;1.02;0.93;;;22.10;56.20;;;;;;5076638;28;20495;-64
2023/07/08 05:09:03;;;;;;;2.00;0.70;;;22.10;56.20;;;;;;5073468;28;20048;-71
2023/07/08 05:11:29;;;;;;;1.55;1.10;;;22.00;56.20;;;;;;5076236;28;20028;-72
2023/07/08 05:13:55;;;;;;;0.75;0.50;;;22.00;56.30;;;;;;5071521;28;20101;-72
2023/07/08 05:16:20;;;;;;;1.58;0.77;;;22.00;56.40;;;;;;5080585;28;20041;-71
2023/07/08 05:18:46;;;;;;;0.52;0.52;;;22.00;56.50;;;;;;5071863;28;20058;-71
2023/07/08 05:21:12;;;;;;;1.17;0.82;;;22.00;57.10;;;;;;5075137;28;20021;-72
2023/07/08 05:23:38;;;;;;;1.15;0.70;;;22.00;56.40;;;;;;5084336;28;20082;-72
2023/07/08 05:26:05;;;;;;;1.52;1.00;;;22.10;56.40;;;;;;5082915;28;20099;-72
2023/07/08 05:28:31;;;;;;;0.52;0.52;;;22.10;56.40;;;;;;5075596;28;20041;-72
2023/07/08 05:30:57;;;;;;;1.00;0.90;;;22.20;56.30;;;;;;5079779;28;20036;-72
2023/07/08 05:33:24;;;;;;;0.75;0.65;;;22.30;56.20;;;;;;5077801;28;20032;-63
2023/07/08 05:35:50;;;;;;;1.25;0.93;;;22.30;56.10;;;;;;5083770;28;20130;-63
2023/07/08 05:38:15;;;;;;;1.25;0.93;;;22.40;56.20;;;;;;5078091;28;20122;-71
2023/07/08 05:40:41;;;;;;;0.98;0.70;;;22.40;56.10;;;;;;5081060;28;20052;-72
2023/07/08 05:43:07;;;;;;;1.52;0.70;;;22.50;56.10;;;;;;5075466;28;20024;-72
2023/07/08 05:45:34;;;;;;;0.77;0.77;;;22.50;55.90;;;;;;5082562;28;20045;-72
2023/07/08 05:48:00;;;;;;;0.77;0.77;;;22.50;55.90;;;;;;5073060;28;20040;-74
2023/07/08 05:50:26;;;;;;;1.88;0.65;;;22.60;56.00;;;;;;5081485;28;20425;-72
2023/07/08 05:52:51;;;;;;;0.63;0.63;;;22.60;55.90;;;;;;5082834;28;20024;-72
2023/07/08 05:55:17;;;;;;;0.77;0.77;;;22.70;56.00;;;;;;5074038;28;20145;-71
2023/07/08 05:57:43;;;;;;;1.25;1.00;;;22.70;55.90;;;;;;5083817;28;20063;-73
2023/07/08 06:00:10;;;;;;;1.00;0.90;;;22.80;55.90;;;;;;5084202;28;20062;-72
2023/07/08 06:02:36;;;;;;;0.73;0.70;;;22.80;55.80;;;;;;5073379;28;20029;-72
2023/07/08 06:05:02;;;;;;;0.50;0.50;;;22.90;55.60;;;;;;5073210;28;20050;-72
2023/07/08 06:07:28;;;;;;;1.95;1.10;;;22.90;55.50;;;;;;5081801;28;20035;-62
2023/07/08 06:09:55;;;;;;;0.60;0.60;;;23.00;55.40;;;;;;5072348;28;20036;-63
2023/07/08 06:12:21;;;;;;;1.17;0.88;;;23.00;55.40;;;;;;5079998;28;20036;-62
2023/07/08 06:14:47;;;;;;;1.83;1.00;;;23.10;55.50;;;;;;5069069;28;20036;-71
2023/07/08 06:17:13;;;;;;;1.02;0.70;;;23.20;56.10;;;;;;5077970;28;20078;-71
2023/07/08 06:19:39;;;;;;;0.77;0.55;;;23.20;55.30;;;;;;5076505;28;20025;-71
2023/07/08 06:22:05;;;;;;;0.80;0.80;;;23.20;55.20;;;;;;5076815;28;20035;-71
2023/07/08 06:24:31;;;;;;;0.98;0.57;;;23.30;55.30;;;;;;5064535;28;20032;-72
2023/07/08 06:26:56;;;;;;;2.10;0.93;;;23.30;55.30;;;;;;5074490;28;20029;-72
2023/07/08 06:29:22;;;;;;;2.13;1.08;;;23.30;55.30;;;;;;5071220;28;20040;-71
2023/07/08 06:31:48;;;;;;;0.70;0.70;;;23.40;55.30;;;;;;5073837;28;20029;-71
2023/07/08 06:34:13;;;;;;;0.98;0.70;;;23.40;55.30;;;;;;5074982;28;20028;-62
2023/07/08 06:36:39;;;;;;;1.27;0.77;;;23.50;55.40;;;;;;5078324;28;20035;-62
2023/07/08 06:39:07;;;;;;;0.70;0.70;;;23.50;55.30;;;;;;5078540;28;20036;-71
2023/07/08 06:41:33;;;;;;;0.63;0.55;;;23.60;55.30;;;;;;5079331;28;20064;-73
2023/07/08 06:43:58;;;;;;;0.77;0.77;;;23.60;55.30;;;;;;5071151;28;20101;-63
2023/07/08 06:46:24;;;;;;;0.60;0.60;;;23.60;56.00;;;;;;5076170;28;20493;-62
2023/07/08 06:48:50;;;;;;;1.00;0.88;;;23.70;55.30;;;;;;5070680;28;20044;-63
2023/07/08 06:51:16;;;;;;;1.20;0.93;;;23.80;55.30;;;;;;5076138;28;20398;-63
2023/07/08 06:53:41;;;;;;;1.20;0.70;;;23.80;55.10;;;;;;5082468;28;20027;-63
2023/07/08 06:56:08;;;;;;;1.33;1.23;;;23.90;55.30;;;;;;5075405;28;20024;-63
2023/07/08 06:58:33;;;;;;;2.83;0.82;;;24.00;55.20;;;;;;5076096;28;20040;-62
2023/07/08 07:00:59;;;;;;;1.50;1.13;;;24.00;55.20;;;;;;5079900;28;20375;-64
2023/07/08 07:03:25;;;;;;;1.02;0.75;;;24.10;55.30;;;;;;5075326;28;20032;-62
2023/07/08 07:05:51;;;;;;;0.98;0.80;;;24.00;55.30;;;;;;5073684;28;20029;-64
2023/07/08 07:08:17;;;;;;;1.05;0.95;;;24.10;55.20;;;;;;5073063;28;20035;-64
2023/07/08 07:10:43;;;;;;;2.95;1.00;;;24.20;55.30;;;;;;5068525;28;20052;-62
2023/07/08 07:13:09;;;;;;;1.48;0.80;;;24.20;55.10;;;;;;5066450;28;20465;-62
2023/07/08 07:15:34;;;;;;;1.02;0.90;;;24.30;55.10;;;;;;5069495;28;20116;-62
2023/07/08 07:18:00;;;;;;;1.27;0.80;;;24.40;55.10;;;;;;5066081;28;20047;-62
2023/07/08 07:20:26;;;;;;;0.68;0.68;;;24.40;55.10;;;;;;5069457;28;20413;-62
2023/07/08 07:22:53;;;;;;;1.17;0.75;;;24.50;55.00;;;;;;5068699;28;20046;-71
2023/07/08 07:25:19;;;;;;;0.60;0.60;;;24.60;55.00;;;;;;5079663;28;20085;-71
2023/07/08 07:27:45;;;;;;;0.93;0.85;;;24.60;55.00;;;;;;5082011;28;20035;-71
2023/07/08 07:30:15;;;;;;;0.85;0.80;;;24.70;54.90;;;;;;5080008;28;20378;-71
2023/07/08 07:32:42;;;;;;;0.70;0.70;;;24.80;54.80;;;;;;5075316;28;20107;-71
2023/07/08 07:35:13;;;;;;;1.10;1.00;;;24.90;54.60;;;;;;5073824;28;20395;-72
2023/07/08 07:37:39;;;;;;;0.80;0.70;;;24.90;54.60;;;;;;5072741;28;20043;-72
2023/07/08 07:40:14;;;;;;;1.17;1.10;;;25.00;54.50;;;;;;5071077;28;20025;-71
2023/07/08 07:42:41;;;;;;;0.70;0.60;;;25.10;54.50;;;;;;5081919;28;20034;-71
2023/07/08 07:45:07;;;;;;;0.88;0.82;;;25.10;54.40;;;;;;5078394;28;20392;-71
2023/07/08 07:47:34;;;;;;;0.70;0.70;;;25.20;54.40;;;;;;5077804;28;20032;-71
2023/07/08 07:50:00;;;;;;;0.98;0.88;;;25.30;54.40;;;;;;5085537;28;20425;-71
2023/07/08 07:52:25;;;;;;;1.65;0.90;;;25.40;54.40;;;;;;5079858;28;20381;-62
2023/07/08 07:54:53;;;;;;;1.00;0.90;;;25.50;54.20;;;;;;5074046;28;20030;-62
2023/07/08 07:57:19;;;;;;;0.68;0.68;;;25.60;54.20;;;;;;5076753;28;20190;-62
2023/07/08 07:59:46;;;;;;;0.65;0.57;;;25.60;54.10;;;;;;5077821;28;20808;-63
2023/07/08 08:02:12;;;;;;;1.20;0.80;;;25.70;54.00;;;;;;5072001;28;20036;-63
2023/07/08 08:04:37;;;;;;;1.20;0.85;;;25.80;54.00;;;;;;5074186;28;20039;-71
2023/07/08 08:07:04;;;;;;;0.75;0.73;;;25.90;53.90;;;;;;5071786;28;20047;-72
2023/07/08 08:09:29;;;;;;;0.85;0.85;;;26.00;53.80;;;;;;5071762;28;20061;-72
2023/07/08 08:11:55;;;;;;;2.70;1.00;;;26.10;53.80;;;;;;5070686;28;20063;-72
2023/07/08 08:14:21;;;;;;;1.20;1.10;;;26.20;53.80;;;;;;5072289;28;20057;-72
2023/07/08 08:16:47;;;;;;;0.70;0.70;;;26.30;53.80;;;;;;5076794;28;20379;-72
2023/07/08 08:19:13;;;;;;;1.02;0.90;;;26.40;53.70;;;;;;5071282;28;20436;-72
2023/07/08 08:21:39;;;;;;;2.03;1.05;;;26.40;53.70;;;;;;5070512;28;20064;-72
2023/07/08 08:24:05;;;;;;;1.00;0.90;;;26.50;53.70;;;;;;5073258;28;20030;-72
2023/07/08 08:26:31;;;;;;;2.42;1.00;;;26.50;53.60;;;;;;5078884;28;20115;-72
2023/07/08 08:28:56;;;;;;;1.65;1.00;;;26.60;53.40;;;;;;5077709;28;20111;-72
2023/07/08 08:31:22;;;;;;;0.93;0.93;;;26.60;53.30;;;;;;5082858;28;20085;-72
2023/07/08 08:33:48;;;;;;;1.27;0.90;;;26.70;53.30;;;;;;5076533;28;20043;-73
2023/07/08 08:36:13;;;;;;;1.10;1.00;;;26.80;53.20;;;;;;5081980;28;21660;-72
2023/07/08 08:38:39;;;;;;;1.52;1.10;;;26.90;53.00;;;;;;5080163;28;20028;-63
2023/07/08 08:41:13;;;;;;;0.80;0.80;;;26.90;52.90;;;;;;5078291;28;20063;-62
2023/07/08 08:43:40;;;;;;;0.93;0.90;;;27.00;52.90;;;;;;5080033;28;20028;-62
2023/07/08 08:46:17;;;;;;;0.82;0.75;;;27.00;52.90;;;;;;5078198;28;20016;-62
2023/07/08 08:49:01;;;;;;;1.70;1.23;;;27.10;53.10;;;;;;5089778;28;20032;-63
2023/07/08 08:51:30;;;;;;;1.02;0.82;;;27.20;53.00;;;;;;5080364;28;20483;-62
2023/07/08 08:53:57;;;;;;;1.15;0.90;;;27.30;53.00;;;;;;5077633;28;20089;-62
2023/07/08 08:56:30;;;;;;;1.80;1.20;;;27.40;53.00;;;;;;5075656;28;20036;-62
2023/07/08 08:59:04;;;;;;;1.05;1.05;;;27.50;53.50;;;;;;5074740;28;20065;-63
2023/07/08 09:01:29;;;;;;;2.97;1.17;;;27.60;53.00;;;;;;5075546;28;20431;-62
2023/07/08 09:04:29;;;;;;;1.30;1.20;;;27.60;52.80;;;;;;5065873;28;20048;-63
2023/07/08 09:07:05;;;;;;;3.13;1.33;;;27.80;52.90;;;;;;5061527;28;20044;-63
2023/07/08 09:09:40;;;;;;;2.55;1.25;;;27.80;52.80;;;;;;5070308;28;20362;-63
2023/07/08 09:12:13;;;;;;;0.80;0.80;;;27.80;52.80;;;;;;5072486;28;20406;-62
2023/07/08 09:14:39;;;;;;;2.15;1.10;;;27.90;52.80;;;;;;5072060;28;20420;-62
2023/07/08 09:17:17;;;;;;;2.53;1.40;;;28.00;52.80;;;;;;5074883;28;20043;-72
2023/07/08 09:19:50;;;;;;;0.88;0.88;;;28.10;52.80;;;;;;5071026;28;20020;-71
2023/07/08 09:22:40;;;;;;;1.35;1.00;;;28.10;52.80;;;;;;5076867;28;20031;-71
2023/07/08 09:25:15;;;;;;;1.63;1.30;;;28.20;52.90;;;;;;5084887;28;20020;-71
2023/07/08 09:27:41;;;;;;;1.75;1.30;;;28.30;52.80;;;;;;5083306;28;20039;-71
2023/07/08 09:30:14;;;;;;;0.80;0.80;;;28.40;52.70;;;;;;5076096;28;20554;-71
2023/07/08 09:32:40;;;;;;;3.88;1.45;;;28.50;52.70;;;;;;5078419;28;20111;-71
2023/07/08 09:35:08;;;;;;;1.45;1.33;;;28.60;52.60;;;;;;5077188;28;20111;-71
2023/07/08 09:37:38;;;;;;;5.25;1.60;;;28.70;52.60;;;;;;5073722;28;20376;-71
2023/07/08 09:40:15;;;;;;;1.35;1.00;;;28.90;52.50;;;;;;5068145;28;20020;-71
2023/07/08 09:42:43;;;;;;;1.88;1.30;;;29.00;52.40;;;;;;5077106;28;20033;-71
2023/07/08 09:45:14;;;;;;;0.90;0.90;;;29.10;52.20;;;;;;5080990;28;20847;-71
2023/07/08 09:47:40;;;;;;;0.82;0.80;;;29.20;52.00;;;;;;5075620;28;20509;-71
2023/07/08 09:50:22;;;;;;;1.35;1.10;;;29.30;51.90;;;;;;5073619;28;20032;-71
2023/07/08 09:52:49;;;;;;;1.02;1.00;;;29.50;51.80;;;;;;5069657;28;20401;-72
2023/07/08 09:55:17;;;;;;;1.20;1.00;;;29.60;51.60;;;;;;5079882;28;20050;-63
2023/07/08 09:57:46;;;;;;;2.22;1.40;;;29.60;51.30;;;;;;5077781;28;20052;-63
2023/07/08 10:00:15;;;;;;;1.10;0.80;;;29.70;51.20;;;;;;5072512;28;20367;-63
2023/07/08 10:02:58;;;;;;;1.60;1.10;;;29.80;51.20;;;;;;5079608;28;20372;-62
2023/07/08 10:05:31;;;;;;;1.00;0.70;;;30.00;50.70;;;;;;5077935;28;20033;-71
2023/07/08 10:07:57;;;;;;;1.35;1.13;;;30.10;50.40;;;;;;5071346;28;20459;-71
2023/07/08 10:10:34;;;;;;;1.55;0.98;;;30.20;50.20;;;;;;5075502;28;20029;-63
2023/07/08 10:13:28;;;;;;;2.33;1.23;;;30.30;50.20;;;;;;5067240;28;20070;-71
2023/07/08 10:16:15;;;;;;;1.45;1.05;;;30.40;49.80;;;;;;5075938;28;20032;-71
2023/07/08 10:18:41;;;;;;;0.90;0.88;;;30.50;49.60;;;;;;5077889;28;20080;-63
2023/07/08 10:21:28;;;;;;;2.83;1.00;;;30.60;49.40;;;;;;5076079;28;20115;-63
2023/07/08 10:24:24;;;;;;;1.08;0.80;;;30.80;49.20;;;;;;5087469;28;20066;-63
2023/07/08 10:26:59;;;;;;;1.77;1.38;;;30.90;49.10;;;;;;5079103;28;20467;-63
2023/07/08 10:29:24;;;;;;;1.90;1.27;;;31.00;48.80;;;;;;5070925;28;20021;-63
2023/07/08 10:32:03;;;;;;;1.20;1.10;;;31.10;48.50;;;;;;5081958;28;20058;-63
2023/07/08 10:34:46;;;;;;;2.00;1.15;;;31.20;48.70;;;;;;5071005;28;20498;-63
2023/07/08 10:37:31;;;;;;;1.80;1.55;;;31.30;48.60;;;;;;5091804;28;20085;-62
2023/07/08 10:40:20;;;;;;;1.67;1.00;;;31.40;48.30;;;;;;5080431;28;20033;-70
2023/07/08 10:43:08;;;;;;;0.80;0.80;;;31.50;48.20;;;;;;5071716;28;20028;-71
2023/07/08 10:45:49;;;;;;;1.48;1.00;;;31.60;48.20;;;;;;5067636;28;20058;-71
2023/07/08 10:48:33;;;;;;;1.30;1.07;;;31.80;48.10;;;;;;5081738;28;20040;-71
2023/07/08 10:51:19;;;;;;;2.65;1.65;;;31.80;48.50;;;;;;5076271;28;20106;-71
2023/07/08 10:54:03;;;;;;;2.15;1.05;;;31.90;47.90;;;;;;5030200;28;20044;-71
2023/07/08 10:56:47;;;;;;;1.30;1.10;;;32.00;47.80;;;;;;5077919;28;20059;-71
2023/07/08 10:59:25;;;;;;;1.33;1.23;;;32.10;47.60;;;;;;5068441;28;20105;-63
2023/07/08 11:02:07;;;;;;;1.52;1.00;;;32.20;47.70;;;;;;5075096;28;20418;-63
2023/07/08 11:04:49;;;;;;;1.20;0.95;;;32.40;47.70;;;;;;5069860;28;20071;-63
2023/07/08 11:07:43;;;;;;;0.98;0.82;;;32.60;47.50;;;;;;5074021;28;20029;-63
2023/07/08 11:10:22;;;;;;;1.52;0.98;;;32.70;47.30;;;;;;5073981;28;20031;-72
2023/07/08 11:12:55;;;;;;;2.00;1.38;;;32.80;47.00;;;;;;5075954;28;20029;-63
2023/07/08 11:15:56;;;;;;;1.30;1.15;;;33.00;46.80;;;;;;5080676;28;20024;-71
2023/07/08 11:18:22;;;;;;;1.35;1.08;;;33.00;46.40;;;;;;5056246;28;20040;-71
2023/07/08 11:20:55;;;;;;;1.15;1.05;;;33.20;46.40;;;;;;5079081;28;20043;-71
2023/07/08 11:23:24;;;;;;;2.22;1.25;;;33.20;46.20;;;;;;5065523;28;20395;-71
2023/07/08 11:25:52;;;;;;;1.67;1.20;;;33.40;46.10;;;;;;5078626;28;20775;-71
2023/07/08 11:28:22;;;;;;;1.77;1.13;;;33.40;45.30;;;;;;5078528;28;20031;-63
2023/07/08 11:30:49;;;;;;;1.55;0.90;;;33.40;45.50;;;;;;5069423;28;20460;-63
2023/07/08 11:33:19;;;;;;;0.98;0.88;;;33.40;45.40;;;;;;5072233;28;20043;-62
2023/07/08 11:35:50;;;;;;;1.45;1.15;;;33.60;45.30;;;;;;5068203;28;20066;-63
2023/07/08 11:38:19;;;;;;;1.80;1.10;;;33.70;45.30;;;;;;5073349;28;20471;-73
2023/07/08 11:41:12;;;;;;;1.80;1.25;;;33.90;45.30;;;;;;5080463;28;20048;-70
2023/07/08 11:43:58;;;;;;;1.30;1.15;;;34.00;45.00;;;;;;5066610;28;20073;-72
2023/07/08 11:46:28;;;;;;;1.52;1.20;;;34.10;44.90;;;;;;5071167;28;20028;-64
2023/07/08 11:48:57;;;;;;;1.63;1.30;;;34.20;44.60;;;;;;5067434;28;20028;-64
2023/07/08 11:51:32;;;;;;;1.95;1.30;;;34.20;44.00;;;;;;5078313;28;20031;-64
2023/07/08 11:54:04;;;;;;;1.25;1.13;;;34.20;44.20;;;;;;5072468;28;20036;-64
2023/07/08 11:56:56;;;;;;;1.80;1.30;;;34.40;44.40;;;;;;5075848;28;20106;-63
2023/07/08 11:59:28;;;;;;;1.70;1.35;;;34.40;44.20;;;;;;5080115;28;20039;-64
2023/07/08 12:02:04;;;;;;;4.50;1.45;;;34.50;44.00;;;;;;5075555;28;20020;-63
2023/07/08 12:04:36;;;;;;;2.65;1.00;;;34.70;44.10;;;;;;5079450;28;20078;-63
2023/07/08 12:07:30;;;;;;;2.22;1.30;;;34.80;44.30;;;;;;5055614;28;20047;-71
2023/07/08 12:10:05;;;;;;;1.92;1.00;;;34.80;43.40;;;;;;5071910;28;20101;-71
2023/07/08 12:12:35;;;;;;;2.67;1.38;;;34.80;43.80;;;;;;5074503;28;20502;-71
2023/07/08 12:15:24;;;;;;;1.30;1.20;;;34.90;43.70;;;;;;5074402;28;20035;-63
2023/07/08 12:17:58;;;;;;;2.28;1.38;;;35.00;43.10;;;;;;5068489;28;20148;-64
2023/07/08 12:20:28;;;;;;;1.92;1.60;;;35.10;43.20;;;;;;5069411;28;20028;-64
2023/07/08 12:22:54;;;;;;;1.63;1.52;;;35.20;43.00;;;;;;5068465;28;20092;-63
2023/07/08 12:25:24;;;;;;;3.05;1.73;;;35.20;42.50;;;;;;5068483;28;20144;-71
2023/07/08 12:27:50;;;;;;;1.85;1.30;;;35.20;42.50;;;;;;5077497;28;20077;-71
2023/07/08 12:30:17;;;;;;;1.92;1.35;;;35.20;42.40;;;;;;5073344;28;20040;-63
2023/07/08 12:32:44;;;;;;;2.03;1.27;;;35.30;43.10;;;;;;5083245;28;20028;-71
2023/07/08 12:35:28;;;;;;;1.95;1.73;;;35.40;42.20;;;;;;5072220;28;20158;-71
2023/07/08 12:37:59;;;;;;;1.23;0.93;;;35.50;42.50;;;;;;5070121;28;20407;-71
2023/07/08 12:40:27;;;;;;;1.63;1.40;;;35.70;42.60;;;;;;5073181;28;20081;-63
2023/07/08 12:42:54;;;;;;;3.05;1.65;;;35.80;42.20;;;;;;5072045;28;20041;-63
2023/07/08 12:45:22;;;;;;;1.63;1.23;;;35.90;41.80;;;;;;5074187;28;20041;-63
2023/07/08 12:47:49;;;;;;;2.03;1.52;;;35.90;42.00;;;;;;5076088;28;20028;-64
2023/07/08 12:50:15;;;;;;;2.20;1.38;;;35.90;41.90;;;;;;5075759;28;20032;-64
2023/07/08 12:52:44;;;;;;;1.27;1.00;;;36.10;41.70;;;;;;5073235;28;20043;-63
2023/07/08 12:55:11;;;;;;;1.55;1.40;;;36.10;41.60;;;;;;5072328;28;20029;-71
2023/07/08 12:57:39;;;;;;;1.60;1.10;;;36.30;41.50;;;;;;5075589;28;20544;-63
2023/07/08 13:00:06;;;;;;;1.75;1.10;;;36.30;41.50;;;;;;5075040;28;20025;-71
2023/07/08 13:02:32;;;;;;;1.45;1.13;;;36.40;41.40;;;;;;5079421;28;20036;-71